Airfield :
LOGIN :

Register | Disclaimer

   EN    FR    IT 

 










Legend :    VFR   Marginal VFR   IFR   Intensive IFR   Very Intensive IFR
Visi :
Ceiling :
>= 8 km
>= 3000ft
5 to 8 km
1000 to 3000 ft
1500m to 5 km
500 to 1000 ft
800 to 1500m
200 to 500 ft
< 800m
< 200 ft
Symbols :   Thunderstorms  Fog  Heavy snow  Heavy precipitations  Wind > 20 kt
SIGMETs :     Misc.  Thunderstorms  Icing  Turbulence  Mountain Waves  Volcanic Ashes







- Airport Elevation : 622 ft
- IATA code : SVO


UUEE - Sheremetyevo International

CURRENT METAR :
  • 271200Z 10007MPS 7000 -SHRA BKN005 BKN020CB 13/13 Q1003 R06R/290051 R06C/290045 NOSIG

EXPIRED METARs :
  • 271130Z 10008MPS 4000 -SHRA BKN005 BKN020CB 13/13 Q1003 R06R/290051 R06C/290045 NOSIG
  • 271100Z 10006MPS 8000 -SHRA BKN006 BKN020CB 14/14 Q1004 R06R/290051 R06C/290045 NOSIG
  • 271030Z 10008MPS 9000 -SHRA BKN007 BKN020CB 14/13 Q1005 R06R/290051 NOSIG
  • 271000Z 09006MPS 9999 -SHRA BKN007 BKN020CB 13/13 Q1005 R06R/290051 NOSIG
  • 270930Z 10007MPS 9000 -SHRA BKN019CB 13/13 Q1006 R06C/290045 R06R/290051 NOSIG

TAF TAF UUEE
Valid from the 27 at 12:00 until the 28 at 12:00 UTC


271058Z 2712/2812 10006G11MPS 6000 BKN011 TX17/2715Z TN14/2806Z
TEMPO 2712/2718 3100 -SHRA FEW006 BKN015CB
FM271800 VRB01MPS 5000 -RA BR OVC011
TEMPO 2718/2803 VRB15MPS 1000 TSRA SQ FEW003 BKN012CB
BECMG 2803/2805 27006MPS 9000 NSW
TEMPO 2806/2812 2100 -SHRA FEW005 BKN015CB
No reported NOTAMs for that airfield.
3 SIGMETs reported for the Moscow FIR (UUWV) :
 
Embedded thunderstorms and hail
UUWV SIGMET 6 VALID 271200/271500 UUWV
UUWV MOSCOW FIR EMBD TSGR FCST SW OF LINE N5840 E03800 - N5340 E04240 TOP FL410 MOV E 30KMH NC=
Severe turbulence
UUWV SIGMET 5 VALID 271100/271300 UUWV
UUWV MOSCOW FIR SEV TURB FCST E OF E040 AND S OF N57 FL300/400 STNR NC=
Embedded thunderstorms and hail
UUWV SIGMET 4 VALID 270930/271200 UUWV
UUWV MOSCOW FIR EMBD TSGR FCST SW OF LINE N5835 E03549 - N5330 E04228 TOP FL390 MOV E 30KMH INTSF=



MET'MAP, your aeronautical weather chart ! - Copyright ORBIFLY December 2007 - Disclaimer

ORBIFLY MET'MAP TEAM :

Programming & Development : Alexandra Zaïnal
Concept & Development : Baudouin d'Aumeries
Co-Development & Prog : Marc-Olivier Méhu
Technical & hardware support : Manuel Goepfert

Contact : metmap@orbifly.com




SOURCES & CREDITS :

   NOAA